Time;durP1;ratioP1;P1;durP2;ratioP2;P2;SDS_P1;SDS_P2;PMS_P1;PMS_P2;Temp;Humidity;BMP_temperature;BMP_pressure;BME280_temperature;BME280_humidity;BME280_pressure;Samples;Min_cycle;Max_cycle;Signal;HPM_P1;HPM_P2
2021/08/21 00:00:07;;;;;;;8.07;7.37;;;13.90;99.90;;;;;;4974628;28;20470;-59
2021/08/21 00:02:35;;;;;;;9.90;7.20;;;13.90;99.90;;;;;;4960996;28;20467;-59
2021/08/21 00:05:02;;;;;;;12.43;7.87;;;13.90;99.90;;;;;;4971206;28;20500;-58
2021/08/21 00:07:29;;;;;;;9.33;7.43;;;13.90;99.90;;;;;;4980523;28;20474;-57
2021/08/21 00:09:56;;;;;;;7.07;6.43;;;13.90;99.90;;;;;;4980796;28;20764;-55
2021/08/21 00:12:23;;;;;;;8.87;7.30;;;13.90;99.90;;;;;;4980834;28;20929;-59
2021/08/21 00:14:50;;;;;;;8.60;7.40;;;13.80;99.90;;;;;;4980241;28;20501;-59
2021/08/21 00:17:29;;;;;;;8.13;7.40;;;13.80;99.90;;;;;;4980473;28;20842;-58
2021/08/21 00:19:56;;;;;;;7.53;6.87;;;13.80;99.90;;;;;;4980907;28;20710;-58
2021/08/21 00:22:23;;;;;;;6.80;6.20;;;13.80;99.90;;;;;;4980661;28;20494;-58
2021/08/21 00:24:50;;;;;;;7.87;6.57;;;13.80;99.90;;;;;;4980711;28;20466;-59
2021/08/21 00:27:16;;;;;;;9.70;8.23;;;13.70;99.90;;;;;;4980452;28;20489;-59
2021/08/21 00:29:43;;;;;;;7.47;6.73;;;13.70;99.90;;;;;;4980634;28;20868;-56
2021/08/21 00:32:12;;;;;;;12.37;7.20;;;13.70;99.90;;;;;;4980400;28;20914;-55
2021/08/21 00:34:43;;;;;;;7.67;6.77;;;13.60;99.90;;;;;;4970566;28;20529;-56
2021/08/21 00:37:10;;;;;;;8.60;6.83;;;13.60;99.90;;;;;;4974673;28;20532;-56
2021/08/21 00:39:37;;;;;;;7.70;6.27;;;13.60;99.90;;;;;;4980075;28;20465;-59
2021/08/21 00:42:05;;;;;;;8.13;6.97;;;13.60;99.90;;;;;;4980187;28;20869;-59
2021/08/21 00:44:35;;;;;;;8.10;7.40;;;13.50;99.90;;;;;;4973842;28;20474;-56
2021/08/21 00:47:09;;;;;;;8.10;6.90;;;13.50;99.90;;;;;;4974574;28;20922;-59
2021/08/21 00:49:36;;;;;;;7.63;6.93;;;13.60;99.90;;;;;;4980011;28;20540;-58
2021/08/21 00:52:13;;;;;;;8.03;7.10;;;13.60;99.90;;;;;;4980354;28;20470;-58
2021/08/21 00:54:40;;;;;;;7.10;6.40;;;13.50;99.90;;;;;;4979917;28;20548;-58
2021/08/21 00:57:12;;;;;;;6.63;6.03;;;13.50;99.90;;;;;;4980154;28;20504;-58
2021/08/21 00:59:41;;;;;;;7.40;6.70;;;13.50;99.90;;;;;;4979714;28;20497;-57
2021/08/21 01:02:10;;;;;;;9.57;6.57;;;13.40;99.90;;;;;;5016761;28;20881;-58
2021/08/21 01:04:39;;;;;;;8.53;7.83;;;13.50;99.90;;;;;;5017382;28;20558;-59
2021/08/21 01:07:07;;;;;;;8.77;7.03;;;13.60;99.90;;;;;;5018723;28;20530;-58
2021/08/21 01:09:37;;;;;;;9.03;7.00;;;13.60;99.90;;;;;;5018144;28;20472;-59
2021/08/21 01:12:05;;;;;;;10.13;6.93;;;13.60;99.90;;;;;;5018438;28;20566;-59
2021/08/21 01:14:32;;;;;;;9.40;7.00;;;13.70;99.90;;;;;;5017604;28;20468;-59
2021/08/21 01:17:00;;;;;;;6.87;6.27;;;13.70;99.90;;;;;;5018250;28;20477;-58
2021/08/21 01:53:40;;;;;;;7.60;6.80;;;13.20;99.90;;;;;;4370083;23;20584;-59
2021/08/21 01:56:10;;;;;;;8.50;6.63;;;13.20;99.90;;;;;;4998541;28;20786;-58
2021/08/21 01:58:37;;;;;;;7.50;6.40;;;13.20;99.90;;;;;;4997830;28;20493;-59
2021/08/21 02:01:04;;;;;;;7.70;6.93;;;13.10;99.90;;;;;;4998440;28;20500;-56
2021/08/21 02:03:34;;;;;;;7.70;6.97;;;13.10;99.90;;;;;;4998458;28;20508;-56
2021/08/21 02:06:03;;;;;;;12.43;7.17;;;13.10;99.90;;;;;;4997662;28;20485;-58
2021/08/21 02:08:30;;;;;;;7.97;7.17;;;13.10;99.90;;;;;;4998416;28;20556;-59
2021/08/21 02:10:58;;;;;;;7.50;6.80;;;13.10;99.90;;;;;;4997785;28;20465;-57
2021/08/21 02:13:25;;;;;;;9.00;8.10;;;13.10;99.90;;;;;;4998429;28;20497;-58
2021/08/21 02:15:52;;;;;;;11.40;6.70;;;13.10;99.90;;;;;;4998138;28;20535;-59
2021/08/21 02:18:19;;;;;;;13.07;7.97;;;13.10;99.90;;;;;;4998172;28;20869;-59
2021/08/21 02:20:46;;;;;;;7.73;6.93;;;13.10;99.90;;;;;;4997828;28;20488;-59
2021/08/21 02:23:13;;;;;;;10.37;7.43;;;13.00;99.90;;;;;;4998125;28;20772;-59
2021/08/21 02:25:40;;;;;;;8.77;7.87;;;13.00;99.90;;;;;;4997968;28;20520;-57
2021/08/21 02:28:17;;;;;;;8.50;7.77;;;12.90;99.90;;;;;;4997725;28;20505;-59
2021/08/21 02:30:45;;;;;;;8.53;7.73;;;13.00;99.90;;;;;;4997358;28;20469;-59
2021/08/21 02:33:12;;;;;;;8.63;7.67;;;13.10;99.90;;;;;;4996264;28;20977;-59
2021/08/21 02:35:40;;;;;;;8.33;7.63;;;13.00;99.90;;;;;;4996016;28;20476;-58
2021/08/21 02:38:07;;;;;;;12.37;7.93;;;12.90;99.90;;;;;;4997361;28;20508;-58
2021/08/21 02:40:34;;;;;;;8.53;6.43;;;12.90;99.90;;;;;;4997360;28;20465;-60
2021/08/21 02:43:01;;;;;;;10.27;7.50;;;12.80;99.90;;;;;;4997668;28;20808;-60
2021/08/21 02:45:29;;;;;;;7.77;7.07;;;12.80;99.90;;;;;;4982970;28;20497;-59
2021/08/21 02:47:56;;;;;;;9.20;7.03;;;12.80;99.90;;;;;;4977999;28;20484;-59
2021/08/21 02:50:23;;;;;;;8.70;7.90;;;12.70;99.90;;;;;;4978421;28;20501;-58
2021/08/21 02:52:51;;;;;;;8.60;7.80;;;12.70;99.90;;;;;;4977956;28;20969;-60
2021/08/21 02:55:18;;;;;;;7.97;6.97;;;12.70;99.90;;;;;;4978212;28;20540;-60
2021/08/21 02:57:45;;;;;;;14.10;7.30;;;12.70;99.90;;;;;;4978420;28;20533;-59
2021/08/21 03:00:12;;;;;;;7.50;6.80;;;12.70;99.90;;;;;;4978301;28;20560;-60
2021/08/21 03:02:41;;;;;;;7.93;7.23;;;12.70;99.90;;;;;;4977774;28;20469;-60
2021/08/21 03:05:11;;;;;;;9.00;7.50;;;12.70;99.90;;;;;;4978060;28;20841;-60
2021/08/21 03:07:38;;;;;;;8.53;6.93;;;12.60;99.90;;;;;;4970770;28;20875;-60
2021/08/21 03:10:06;;;;;;;9.93;7.60;;;12.60;99.90;;;;;;4978473;28;20597;-60
2021/08/21 03:12:33;;;;;;;12.30;7.73;;;12.60;99.90;;;;;;4970346;28;20508;-58
2021/08/21 03:15:00;;;;;;;13.27;8.63;;;12.50;99.90;;;;;;4977976;28;20515;-60
2021/08/21 03:17:27;;;;;;;7.17;6.47;;;12.50;99.90;;;;;;4977912;28;20530;-60
2021/08/21 03:19:56;;;;;;;7.47;6.80;;;12.50;99.90;;;;;;4978058;28;20498;-59
2021/08/21 03:22:23;;;;;;;7.90;7.20;;;12.40;99.90;;;;;;4977588;28;20918;-60
2021/08/21 03:24:49;;;;;;;9.37;7.53;;;12.40;99.90;;;;;;4977836;28;20544;-60
2021/08/21 03:27:19;;;;;;;9.47;7.10;;;12.50;99.90;;;;;;4978141;28;20524;-60
2021/08/21 03:29:46;;;;;;;7.33;6.63;;;12.40;99.90;;;;;;4978005;28;20466;-60
2021/08/21 03:32:16;;;;;;;8.30;6.13;;;12.40;99.90;;;;;;4977857;28;20501;-60
2021/08/21 03:34:43;;;;;;;9.73;7.40;;;12.40;99.90;;;;;;4987562;28;20540;-60
2021/08/21 03:37:12;;;;;;;8.10;7.30;;;12.40;99.90;;;;;;4996856;28;20898;-60
2021/08/21 03:39:39;;;;;;;8.60;7.73;;;12.40;99.90;;;;;;4997502;28;20500;-60
2021/08/21 03:42:07;;;;;;;10.20;6.90;;;12.30;99.90;;;;;;4997563;28;20495;-60
2021/08/21 03:44:34;;;;;;;8.73;6.83;;;12.30;99.90;;;;;;4992545;28;20896;-60
2021/08/21 03:47:01;;;;;;;8.63;6.53;;;12.30;99.90;;;;;;4981083;28;20894;-60
2021/08/21 03:49:28;;;;;;;8.53;6.83;;;12.30;99.90;;;;;;4981334;28;20877;-60
2021/08/21 03:51:55;;;;;;;5.90;5.33;;;12.30;99.90;;;;;;4981249;28;20460;-60
2021/08/21 03:54:23;;;;;;;8.13;6.70;;;12.30;99.90;;;;;;4981699;28;20458;-60
2021/08/21 03:56:50;;;;;;;9.87;6.80;;;12.20;99.90;;;;;;4980810;28;20498;-60
2021/08/21 03:59:17;;;;;;;7.03;6.43;;;12.20;99.90;;;;;;4980850;28;20469;-60
2021/08/21 04:01:44;;;;;;;8.20;7.40;;;12.30;99.90;;;;;;4981187;28;20925;-60
2021/08/21 04:04:11;;;;;;;7.70;7.00;;;12.30;99.90;;;;;;4981126;28;20759;-60
2021/08/21 04:06:39;;;;;;;7.47;6.70;;;12.30;99.90;;;;;;4980996;28;20440;-60
2021/08/21 04:09:06;;;;;;;8.33;6.50;;;12.30;99.90;;;;;;4981086;28;20772;-60
2021/08/21 04:11:34;;;;;;;10.20;8.07;;;12.30;99.90;;;;;;4981107;28;20469;-60
2021/08/21 04:14:01;;;;;;;7.60;6.90;;;12.30;99.90;;;;;;4980865;28;20987;-60
2021/08/21 04:16:28;;;;;;;9.70;6.47;;;12.20;99.90;;;;;;4980385;28;20529;-61
2021/08/21 04:18:55;;;;;;;11.77;7.23;;;12.20;99.90;;;;;;4980591;28;20528;-61
2021/08/21 04:21:22;;;;;;;8.10;7.30;;;12.20;99.90;;;;;;4980748;28;20810;-61
2021/08/21 04:23:52;;;;;;;8.03;7.33;;;12.20;99.90;;;;;;4980356;28;20904;-61
2021/08/21 04:26:19;;;;;;;7.77;6.80;;;12.20;99.90;;;;;;4980793;28;20906;-61
2021/08/21 04:28:48;;;;;;;7.23;6.40;;;12.10;99.90;;;;;;4980395;28;20762;-61
2021/08/21 04:31:15;;;;;;;7.90;6.73;;;12.20;99.90;;;;;;4980536;28;20499;-61
2021/08/21 04:33:42;;;;;;;11.50;6.57;;;12.10;99.90;;;;;;4982541;28;20516;-61
2021/08/21 04:36:09;;;;;;;7.67;6.97;;;12.20;99.90;;;;;;5000186;28;20464;-61
2021/08/21 04:38:36;;;;;;;9.47;7.20;;;12.20;99.90;;;;;;4999149;28;20532;-61
2021/08/21 04:41:02;;;;;;;7.17;6.57;;;12.30;99.90;;;;;;4999676;28;20820;-62
2021/08/21 04:43:31;;;;;;;8.27;7.00;;;12.30;99.90;;;;;;4998898;28;20465;-62
2021/08/21 04:46:00;;;;;;;7.50;6.80;;;12.30;99.90;;;;;;4982498;28;20500;-62
2021/08/21 04:48:27;;;;;;;9.87;7.03;;;12.40;99.90;;;;;;4999670;28;20457;-61
2021/08/21 04:50:54;;;;;;;6.97;6.37;;;12.50;99.90;;;;;;4999506;28;20535;-61
2021/08/21 04:53:21;;;;;;;7.67;6.30;;;12.50;99.90;;;;;;4998882;28;20979;-61
2021/08/21 04:55:48;;;;;;;10.83;7.40;;;12.60;99.90;;;;;;4998780;28;20460;-61
2021/08/21 04:58:15;;;;;;;8.40;7.17;;;12.80;99.90;;;;;;4999377;28;20547;-61
2021/08/21 05:00:44;;;;;;;7.37;6.77;;;12.90;99.90;;;;;;4998383;28;20464;-61
2021/08/21 05:03:12;;;;;;;7.40;6.40;;;12.90;99.90;;;;;;4999350;28;20527;-61
2021/08/21 05:05:39;;;;;;;7.80;6.97;;;13.10;99.90;;;;;;4999459;28;20468;-61
2021/08/21 05:08:09;;;;;;;10.87;6.73;;;13.10;99.90;;;;;;4997525;28;20505;-61
2021/08/21 05:10:36;;;;;;;8.40;7.43;;;13.20;99.90;;;;;;4989231;28;20490;-61
2021/08/21 05:13:03;;;;;;;9.43;8.07;;;13.30;99.90;;;;;;4979518;28;20512;-61
2021/08/21 05:15:33;;;;;;;11.60;7.80;;;13.40;99.90;;;;;;4995460;28;20519;-61
2021/08/21 05:18:01;;;;;;;7.47;6.63;;;13.40;99.90;;;;;;5005921;28;20855;-61
2021/08/21 05:20:31;;;;;;;10.83;7.50;;;13.50;99.90;;;;;;5014308;28;20480;-61
2021/08/21 05:23:05;;;;;;;8.50;7.70;;;13.60;99.90;;;;;;4997936;28;20509;-61
2021/08/21 05:25:38;;;;;;;9.80;8.90;;;13.60;99.90;;;;;;4997215;28;20528;-61
2021/08/21 05:28:05;;;;;;;8.67;7.83;;;13.70;99.90;;;;;;4986884;28;20805;-61
2021/08/21 05:30:33;;;;;;;8.87;7.97;;;13.90;99.90;;;;;;4997266;28;20473;-61
2021/08/21 05:33:00;;;;;;;9.83;7.70;;;13.90;99.90;;;;;;4996736;28;20512;-61
2021/08/21 05:35:29;;;;;;;16.83;11.53;;;14.00;99.90;;;;;;4994157;28;20512;-61
2021/08/21 05:37:56;;;;;;;13.60;10.43;;;14.10;99.90;;;;;;4998138;28;20864;-61
2021/08/21 05:40:22;;;;;;;10.83;9.50;;;14.10;99.90;;;;;;4996551;28;20501;-61
2021/08/21 05:42:49;;;;;;;10.33;9.33;;;14.20;99.90;;;;;;4990899;28;20532;-63
2021/08/21 05:45:16;;;;;;;11.00;9.93;;;14.30;99.90;;;;;;4986720;28;20465;-63
2021/08/21 05:47:45;;;;;;;11.13;10.13;;;14.40;99.90;;;;;;4992251;28;20827;-63
2021/08/21 05:50:13;;;;;;;10.13;9.20;;;14.50;99.90;;;;;;4998341;28;20885;-63
2021/08/21 05:52:42;;;;;;;11.40;9.30;;;14.50;99.90;;;;;;4998043;28;20624;-63
2021/08/21 05:55:10;;;;;;;11.80;10.70;;;14.60;99.90;;;;;;4998157;28;20446;-63
2021/08/21 05:57:37;;;;;;;10.30;9.40;;;14.70;99.90;;;;;;4991439;28;20801;-63
2021/08/21 06:00:09;;;;;;;10.53;9.53;;;14.70;99.90;;;;;;4979108;28;20448;-63
2021/08/21 06:02:37;;;;;;;11.33;10.23;;;14.80;99.90;;;;;;4978847;28;20806;-63
2021/08/21 06:05:06;;;;;;;10.83;9.80;;;15.00;99.90;;;;;;4978773;28;20465;-63
2021/08/21 06:07:33;;;;;;;11.23;9.80;;;15.10;99.90;;;;;;4978773;28;20461;-63
2021/08/21 06:10:01;;;;;;;11.40;10.40;;;15.30;99.90;;;;;;4978684;28;20461;-63
2021/08/21 06:12:31;;;;;;;11.97;10.80;;;15.30;99.90;;;;;;4981025;28;20508;-63
2021/08/21 06:14:58;;;;;;;10.80;9.53;;;15.40;99.90;;;;;;4989480;28;20858;-63
2021/08/21 06:17:25;;;;;;;9.40;8.40;;;15.50;99.90;;;;;;4986910;28;20603;-63
2021/08/21 06:19:52;;;;;;;14.10;9.10;;;15.70;99.90;;;;;;4979055;28;20508;-63
2021/08/21 06:22:19;;;;;;;10.03;9.10;;;15.90;99.90;;;;;;4994939;28;20471;-63
2021/08/21 06:24:45;;;;;;;12.37;10.67;;;16.10;99.90;;;;;;4997916;28;20489;-63
2021/08/21 06:27:14;;;;;;;9.90;8.90;;;16.40;99.90;;;;;;4998005;28;20830;-63
2021/08/21 06:29:41;;;;;;;10.93;9.77;;;16.50;99.90;;;;;;4998135;28;20956;-63
2021/08/21 06:32:08;;;;;;;12.07;10.00;;;16.60;99.90;;;;;;4997955;28;20909;-63
2021/08/21 06:34:36;;;;;;;11.53;10.33;;;16.70;99.90;;;;;;4988539;28;20497;-63
2021/08/21 06:37:05;;;;;;;11.13;10.03;;;16.80;99.90;;;;;;4978695;28;20534;-63
2021/08/21 06:39:33;;;;;;;12.00;10.70;;;17.00;99.90;;;;;;4978861;28;20540;-63
2021/08/21 06:42:03;;;;;;;13.80;10.77;;;17.10;99.90;;;;;;4978182;28;20470;-62
2021/08/21 06:44:31;;;;;;;11.00;10.00;;;17.20;99.90;;;;;;4978598;28;20500;-62
2021/08/21 06:46:58;;;;;;;11.33;10.23;;;17.40;99.90;;;;;;4977818;28;20508;-62
2021/08/21 06:49:25;;;;;;;12.40;11.10;;;17.40;99.90;;;;;;4978317;28;20524;-62
2021/08/21 06:51:52;;;;;;;12.27;11.03;;;17.60;99.90;;;;;;4978336;28;20498;-62
2021/08/21 06:54:19;;;;;;;13.70;12.40;;;17.70;99.90;;;;;;4978888;28;20490;-62
2021/08/21 06:56:46;;;;;;;14.50;10.37;;;17.70;99.90;;;;;;4977623;28;20493;-62
2021/08/21 06:59:13;;;;;;;13.70;12.30;;;17.80;99.90;;;;;;4978312;28;20963;-62
2021/08/21 07:01:41;;;;;;;13.00;11.77;;;17.80;99.90;;;;;;4978118;28;20476;-62
2021/08/21 07:04:08;;;;;;;11.33;10.20;;;17.80;99.90;;;;;;4981215;28;20486;-62
2021/08/21 07:06:35;;;;;;;12.20;11.17;;;17.80;99.90;;;;;;4984315;28;20461;-62
2021/08/21 07:09:02;;;;;;;13.43;11.43;;;17.90;99.90;;;;;;4985438;28;20492;-61
2021/08/21 07:11:29;;;;;;;12.43;11.27;;;18.00;99.90;;;;;;4987390;28;20461;-61
2021/08/21 07:13:56;;;;;;;13.07;11.87;;;18.00;99.90;;;;;;4985852;28;20913;-61
2021/08/21 07:16:23;;;;;;;12.50;11.40;;;18.10;99.90;;;;;;4986142;28;20508;-61
2021/08/21 07:18:53;;;;;;;12.90;11.63;;;18.20;99.90;;;;;;4988400;28;21008;-61
2021/08/21 07:21:21;;;;;;;13.47;12.27;;;18.40;99.90;;;;;;4990105;28;20488;-61
2021/08/21 07:23:49;;;;;;;14.00;12.57;;;18.60;99.90;;;;;;4989162;28;20462;-62
2021/08/21 07:26:16;;;;;;;14.43;12.00;;;18.90;99.90;;;;;;4990857;28;20914;-61
2021/08/21 07:28:43;;;;;;;15.17;12.70;;;19.40;99.90;;;;;;4990259;28;20497;-61
2021/08/21 07:31:10;;;;;;;13.70;12.30;;;19.90;99.90;;;;;;4988814;28;20461;-61
2021/08/21 07:33:37;;;;;;;15.20;13.60;;;20.10;99.90;;;;;;4991315;28;20467;-61
2021/08/21 07:36:08;;;;;;;14.17;12.77;;;20.10;99.90;;;;;;4989666;28;20866;-60
2021/08/21 07:38:35;;;;;;;13.27;11.90;;;20.70;99.90;;;;;;4989000;28;20517;-60
2021/08/21 07:41:03;;;;;;;14.83;13.53;;;21.20;99.90;;;;;;4989713;28;20957;-60
2021/08/21 07:43:30;;;;;;;13.53;12.10;;;21.40;99.90;;;;;;4988977;28;20493;-60
2021/08/21 07:45:57;;;;;;;14.07;12.70;;;21.60;99.90;;;;;;4991019;28;20497;-60
2021/08/21 07:48:24;;;;;;;13.97;12.57;;;21.90;99.90;;;;;;4989271;28;20500;-60
2021/08/21 07:50:51;;;;;;;13.60;12.30;;;22.20;99.90;;;;;;4990361;28;20791;-60
2021/08/21 07:53:19;;;;;;;14.37;12.90;;;22.50;99.90;;;;;;4989134;28;20765;-60
2021/08/21 07:55:46;;;;;;;12.43;11.30;;;22.80;99.90;;;;;;4989062;28;20457;-60
2021/08/21 07:58:13;;;;;;;12.97;11.77;;;23.00;99.90;;;;;;4990062;28;20861;-60
2021/08/21 08:00:40;;;;;;;13.40;12.10;;;23.20;99.90;;;;;;4989153;28;20504;-60
2021/08/21 08:03:14;;;;;;;12.57;11.37;;;23.30;99.90;;;;;;4988397;28;20793;-60
2021/08/21 08:05:41;;;;;;;11.97;10.77;;;23.30;99.90;;;;;;4989679;28;20724;-60
2021/08/21 08:08:08;;;;;;;12.57;11.37;;;23.40;99.90;;;;;;4988156;28;20534;-60
2021/08/21 08:10:37;;;;;;;14.07;12.33;;;23.70;99.90;;;;;;4988092;28;20536;-60
2021/08/21 08:13:06;;;;;;;12.50;11.50;;;23.70;99.90;;;;;;4993329;28;21128;-60
2021/08/21 08:15:33;;;;;;;13.03;11.67;;;23.90;99.90;;;;;;4975003;28;20981;-60
2021/08/21 08:18:00;;;;;;;12.80;11.60;;;23.90;99.90;;;;;;4984004;28;20611;-60
2021/08/21 08:20:27;;;;;;;15.33;11.67;;;24.10;99.90;;;;;;4990455;28;20468;-60
2021/08/21 08:22:54;;;;;;;11.73;10.63;;;24.60;99.90;;;;;;4997496;28;21086;-59
2021/08/21 08:25:21;;;;;;;11.80;10.57;;;24.90;99.90;;;;;;4998345;28;20472;-60
2021/08/21 08:27:49;;;;;;;9.90;9.03;;;25.10;98.50;;;;;;4980578;28;20462;-60
2021/08/21 08:30:17;;;;;;;9.70;8.90;;;25.10;99.90;;;;;;4979541;28;20466;-59
2021/08/21 08:32:44;;;;;;;11.20;10.10;;;25.20;99.90;;;;;;4980472;28;20487;-60
2021/08/21 09:12:04;;;;;;;10.10;8.97;;;26.90;80.30;;;;;;4874425;23;20520;-58
2021/08/21 09:14:36;;;;;;;8.97;7.97;;;27.00;78.60;;;;;;4998902;28;20500;-57
2021/08/21 09:17:18;;;;;;;10.20;9.20;;;27.10;88.10;;;;;;4999407;28;20501;-57
2021/08/21 09:19:46;;;;;;;10.57;9.53;;;27.00;76.30;;;;;;4999444;28;21048;-56
2021/08/21 09:22:14;;;;;;;9.60;8.80;;;26.90;80.10;;;;;;4999209;28;20794;-57
2021/08/21 09:24:42;;;;;;;8.60;7.87;;;27.30;77.40;;;;;;4998028;28;20898;-56
2021/08/21 09:27:22;;;;;;;9.00;8.30;;;27.70;78.30;;;;;;4998599;28;20511;-57
2021/08/21 09:30:06;;;;;;;7.93;7.20;;;28.00;71.60;;;;;;4985518;28;20492;-58
2021/08/21 09:32:33;;;;;;;9.10;8.30;;;28.10;71.50;;;;;;4981255;28;20466;-57
2021/08/21 09:35:06;;;;;;;8.10;7.27;;;28.40;67.60;;;;;;4978946;28;20504;-56
2021/08/21 09:37:52;;;;;;;6.93;6.30;;;28.90;66.30;;;;;;4979368;28;20505;-58
2021/08/21 09:40:30;;;;;;;9.50;8.80;;;28.70;63.50;;;;;;4984343;28;20778;-57
2021/08/21 09:42:59;;;;;;;9.53;7.97;;;28.40;63.10;;;;;;4990904;28;20469;-58
2021/08/21 09:45:29;;;;;;;8.97;7.17;;;28.20;63.80;;;;;;4984421;28;20560;-56
2021/08/21 09:48:00;;;;;;;8.27;7.10;;;28.10;65.90;;;;;;4978483;28;20509;-58
2021/08/21 09:50:28;;;;;;;8.37;6.90;;;28.30;64.10;;;;;;4990658;28;20462;-56
2021/08/21 09:53:01;;;;;;;8.77;6.90;;;28.20;65.40;;;;;;4993199;28;20497;-57
2021/08/21 09:55:29;;;;;;;6.10;5.70;;;28.40;72.30;;;;;;4989456;28;21013;-58
2021/08/21 09:58:05;;;;;;;7.93;7.13;;;28.80;65.00;;;;;;4993628;28;20757;-58
2021/08/21 10:00:34;;;;;;;6.67;6.07;;;29.10;61.80;;;;;;4994190;28;20472;-57
2021/08/21 10:03:04;;;;;;;7.33;6.00;;;29.10;60.10;;;;;;4997740;28;20576;-55
2021/08/21 10:05:32;;;;;;;7.10;6.50;;;28.80;59.90;;;;;;4996345;28;20504;-58
2021/08/21 10:08:02;;;;;;;7.00;6.50;;;28.80;59.80;;;;;;4993392;28;20506;-53
2021/08/21 11:26:24;;;;;;;3.40;3.20;;;28.90;56.80;;;;;;4770053;23;20496;-60
2021/08/21 11:29:07;;;;;;;4.07;3.63;;;29.20;56.80;;;;;;4982018;28;20497;-60
2021/08/21 11:31:54;;;;;;;4.17;3.87;;;28.50;56.90;;;;;;4992552;28;20559;-58
2021/08/21 11:34:23;;;;;;;3.33;3.03;;;28.00;58.90;;;;;;4981194;28;20503;-60
2021/08/21 11:36:53;;;;;;;3.73;3.43;;;27.50;59.10;;;;;;4981596;28;20564;-59
2021/08/21 11:39:20;;;;;;;2.97;2.77;;;27.80;59.90;;;;;;4982503;28;20528;-59
2021/08/21 11:41:56;;;;;;;3.37;3.10;;;28.50;57.60;;;;;;4981118;28;20461;-59
2021/08/21 11:44:33;;;;;;;3.30;3.10;;;29.20;56.90;;;;;;4981598;28;20453;-56
2021/08/21 11:47:08;;;;;;;3.70;3.27;;;29.70;53.80;;;;;;4981584;28;20928;-60
2021/08/21 11:49:35;;;;;;;2.90;2.70;;;30.20;51.50;;;;;;4980886;28;20555;-60
2021/08/21 11:52:05;;;;;;;3.43;3.23;;;30.70;51.60;;;;;;4981328;28;20481;-59
2021/08/21 11:54:33;;;;;;;3.57;3.37;;;30.60;51.80;;;;;;4981295;28;20559;-59
2021/08/21 11:57:03;;;;;;;3.50;3.27;;;30.40;51.30;;;;;;4981002;28;20465;-59
2021/08/21 11:59:30;;;;;;;3.47;3.17;;;29.50;52.30;;;;;;4981102;28;20520;-56
2021/08/21 12:02:04;;;;;;;3.43;3.20;;;28.90;54.20;;;;;;4981013;28;20474;-59
2021/08/21 12:04:33;;;;;;;3.30;3.10;;;28.70;54.70;;;;;;4985825;28;20524;-56
2021/08/21 12:07:00;;;;;;;3.40;3.20;;;28.30;54.20;;;;;;4983542;28;20473;-57
2021/08/21 12:09:27;;;;;;;3.80;3.50;;;28.00;55.70;;;;;;5000299;28;20538;-58
2021/08/21 12:11:59;;;;;;;3.47;3.27;;;28.00;55.40;;;;;;4992827;28;20490;-55
2021/08/21 12:14:32;;;;;;;2.97;2.77;;;28.30;55.60;;;;;;4981009;28;20557;-58
2021/08/21 12:17:02;;;;;;;5.30;3.43;;;28.30;55.40;;;;;;4981051;28;20473;-56
2021/08/21 12:19:34;;;;;;;3.90;3.60;;;28.00;56.00;;;;;;4985227;28;20731;-56
2021/08/21 12:22:03;;;;;;;3.57;3.27;;;27.50;57.30;;;;;;4980945;28;20511;-56
2021/08/21 12:24:31;;;;;;;3.47;3.07;;;28.00;57.10;;;;;;4983370;28;20552;-54
2021/08/21 12:26:59;;;;;;;3.80;3.50;;;27.90;55.50;;;;;;4997401;28;20468;-58
2021/08/21 12:29:36;;;;;;;3.00;2.70;;;27.60;55.70;;;;;;4995991;28;20555;-59
2021/08/21 12:32:06;;;;;;;3.80;3.50;;;27.40;57.70;;;;;;4988773;28;20496;-60
2021/08/21 12:34:36;;;;;;;4.77;3.73;;;27.70;58.50;;;;;;4993439;28;20468;-60
2021/08/21 12:37:07;;;;;;;3.37;3.17;;;27.80;57.60;;;;;;4995658;28;20447;-59
2021/08/21 12:39:40;;;;;;;3.37;3.17;;;28.10;57.80;;;;;;4999421;28;20472;-55
2021/08/21 12:42:12;;;;;;;3.60;3.30;;;28.80;56.40;;;;;;5000040;28;20465;-58
2021/08/21 12:44:42;;;;;;;3.30;3.10;;;29.30;56.20;;;;;;4991719;28;20501;-58
2021/08/21 12:47:16;;;;;;;4.63;3.20;;;29.60;53.80;;;;;;4991297;28;20504;-59
2021/08/21 12:49:44;;;;;;;3.30;3.10;;;29.60;53.80;;;;;;4999650;28;20578;-55
2021/08/21 12:52:17;;;;;;;3.73;3.53;;;29.40;54.40;;;;;;4999804;28;20551;-59
2021/08/21 12:54:45;;;;;;;3.87;3.63;;;28.70;54.80;;;;;;4998612;28;20473;-59
2021/08/21 12:57:15;;;;;;;4.40;4.10;;;28.20;56.00;;;;;;4990016;28;20496;-58
2021/08/21 12:59:48;;;;;;;4.10;3.80;;;28.30;57.20;;;;;;4999080;28;20465;-56
2021/08/21 13:02:19;;;;;;;3.87;3.60;;;28.90;55.40;;;;;;4999171;28;20501;-60
2021/08/21 13:04:57;;;;;;;3.27;3.07;;;28.90;54.00;;;;;;4990789;28;20465;-57
2021/08/21 13:07:41;;;;;;;4.10;3.70;;;29.20;55.10;;;;;;4998439;28;20755;-56
2021/08/21 13:10:11;;;;;;;3.40;3.20;;;29.70;54.60;;;;;;4998883;28;20944;-59
2021/08/21 13:12:39;;;;;;;3.50;3.20;;;29.20;53.90;;;;;;4983149;28;20465;-59
2021/08/21 13:15:14;;;;;;;3.43;3.23;;;28.60;54.30;;;;;;4979290;28;20497;-57
2021/08/21 13:17:41;;;;;;;3.53;3.23;;;27.90;56.80;;;;;;4978419;28;20512;-57
2021/08/21 13:20:10;;;;;;;3.33;3.13;;;27.40;58.00;;;;;;4979774;28;20898;-57
2021/08/21 13:22:37;;;;;;;3.03;2.83;;;27.10;55.90;;;;;;4979021;28;20512;-59
2021/08/21 13:25:06;;;;;;;3.60;3.40;;;27.40;57.50;;;;;;4978411;28;20536;-57
2021/08/21 14:02:03;;;;;;;5.10;3.63;;;27.60;56.90;;;;;;5395375;23;20458;-59
2021/08/21 14:04:32;;;;;;;4.73;4.43;;;27.60;56.90;;;;;;4997537;28;20469;-57
2021/08/21 14:45:44;;;;;;;4.83;4.53;;;27.90;56.80;;;;;;3902206;23;20489;-58
2021/08/21 14:48:11;;;;;;;5.03;4.63;;;27.50;56.80;;;;;;4997793;28;20535;-59
2021/08/21 14:50:40;;;;;;;5.33;4.93;;;27.30;57.30;;;;;;4997594;28;20536;-59
2021/08/21 14:53:07;;;;;;;4.97;4.57;;;26.90;58.50;;;;;;4997945;28;20559;-59
2021/08/21 14:55:36;;;;;;;4.67;4.27;;;26.80;59.20;;;;;;4997513;28;20493;-58
2021/08/21 14:58:05;;;;;;;4.60;4.30;;;26.80;59.60;;;;;;4997727;28;20821;-58
2021/08/21 15:00:34;;;;;;;4.60;4.30;;;26.80;60.10;;;;;;4997361;28;20747;-58
2021/08/21 15:03:05;;;;;;;6.33;5.83;;;26.90;60.40;;;;;;4996924;28;20464;-59
2021/08/21 15:05:34;;;;;;;6.33;4.90;;;27.00;59.50;;;;;;4997124;28;20480;-59
2021/08/21 15:08:00;;;;;;;4.80;4.50;;;27.00;60.60;;;;;;4997539;28;20464;-59
2021/08/21 15:10:27;;;;;;;4.20;3.90;;;26.90;60.10;;;;;;4997329;28;20543;-58
2021/08/21 15:12:55;;;;;;;4.80;4.50;;;26.80;61.00;;;;;;4997672;28;20535;-59
2021/08/21 15:15:28;;;;;;;4.60;4.30;;;26.80;61.00;;;;;;4998027;28;20485;-57
2021/08/21 15:17:55;;;;;;;4.90;4.50;;;26.90;61.30;;;;;;4997267;28;20523;-59
2021/08/21 15:20:26;;;;;;;4.60;4.30;;;26.90;63.70;;;;;;4997283;28;20818;-59
2021/08/21 15:22:58;;;;;;;4.53;4.23;;;26.90;61.20;;;;;;4997590;28;20520;-59
2021/08/21 15:25:25;;;;;;;4.97;4.57;;;27.10;61.60;;;;;;4997682;28;20476;-59
2021/08/21 15:27:52;;;;;;;5.30;4.80;;;27.00;62.40;;;;;;4992621;28;20466;-58
2021/08/21 15:30:19;;;;;;;5.53;5.03;;;27.10;62.00;;;;;;4992149;28;20572;-58
2021/08/21 15:32:46;;;;;;;5.20;4.80;;;27.40;59.60;;;;;;4996390;28;20805;-58
2021/08/21 15:35:18;;;;;;;5.30;4.90;;;27.30;59.10;;;;;;4997128;28;20472;-59
2021/08/21 15:37:46;;;;;;;4.73;4.33;;;27.40;58.40;;;;;;4997179;28;20972;-59
2021/08/21 15:40:16;;;;;;;4.70;4.40;;;27.40;59.20;;;;;;4999272;28;20555;-58
2021/08/21 15:42:43;;;;;;;5.13;4.70;;;27.30;58.40;;;;;;5001052;28;20822;-56
2021/08/21 15:45:14;;;;;;;5.20;4.80;;;27.10;58.50;;;;;;4989117;28;20540;-56
2021/08/21 15:47:41;;;;;;;4.37;4.07;;;26.90;58.30;;;;;;4981247;28;20465;-59
2021/08/21 15:50:12;;;;;;;4.20;3.80;;;27.00;59.10;;;;;;4981319;28;20537;-59
2021/08/21 15:52:39;;;;;;;4.90;4.60;;;27.10;59.30;;;;;;4981404;28;20466;-56
2021/08/21 15:55:10;;;;;;;4.97;4.67;;;26.90;59.10;;;;;;4981571;28;20807;-59
2021/08/21 15:57:37;;;;;;;4.67;4.30;;;26.90;61.40;;;;;;4980690;28;20476;-59
2021/08/21 16:00:11;;;;;;;4.97;4.67;;;26.80;59.70;;;;;;4981187;28;20837;-59
2021/08/21 16:02:38;;;;;;;4.73;4.43;;;26.70;60.10;;;;;;4981111;28;20825;-59
2021/08/21 16:05:06;;;;;;;6.93;6.43;;;26.50;61.30;;;;;;4980777;28;20564;-59
2021/08/21 16:07:35;;;;;;;5.60;4.70;;;26.50;60.90;;;;;;4980379;28;20791;-57
2021/08/21 16:10:03;;;;;;;5.37;4.87;;;26.30;62.40;;;;;;4980706;28;20533;-59
2021/08/21 16:12:33;;;;;;;4.77;4.33;;;26.20;63.50;;;;;;4995484;28;20465;-58
2021/08/21 16:15:03;;;;;;;4.57;4.17;;;26.10;64.20;;;;;;5000912;28;20496;-57
2021/08/21 16:17:31;;;;;;;5.47;4.97;;;26.00;65.70;;;;;;4999856;28;20764;-58
2021/08/21 16:19:58;;;;;;;5.50;5.10;;;26.00;66.70;;;;;;5000335;28;20465;-58
2021/08/21 16:22:28;;;;;;;8.37;6.17;;;25.90;68.00;;;;;;5000206;28;20504;-58
2021/08/21 16:24:56;;;;;;;8.10;7.37;;;25.90;68.80;;;;;;5000413;28;20523;-59
2021/08/21 16:27:25;;;;;;;7.93;6.03;;;25.90;68.30;;;;;;5000292;28;20536;-56
2021/08/21 16:29:55;;;;;;;5.10;4.70;;;25.90;68.20;;;;;;5000024;28;20532;-59